Time;durP1;ratioP1;P1;durP2;ratioP2;P2;SDS_P1;SDS_P2;PMS_P1;PMS_P2;Temp;Humidity;BMP_temperature;BMP_pressure;BME280_temperature;BME280_humidity;BME280_pressure;Samples;Min_cycle;Max_cycle;Signal;HPM_P1;HPM_P2
2022/01/12 00:00:58;;;;;;;42.80;23.17;;;;;;;2.71;100.00;103498.09;5059801;28;20156;-73
2022/01/12 00:03:24;;;;;;;44.65;24.27;;;;;;;2.60;100.00;103500.41;5059170;28;20063;-74
2022/01/12 00:05:50;;;;;;;43.53;24.00;;;;;;;2.67;100.00;103499.47;5061736;28;20040;-74
2022/01/12 00:08:15;;;;;;;44.58;23.13;;;;;;;2.77;100.00;103496.50;5061001;28;20036;-72
2022/01/12 00:10:41;;;;;;;41.97;24.17;;;;;;;2.80;100.00;103508.78;5060654;28;20295;-74
2022/01/12 00:13:06;;;;;;;42.83;22.73;;;;;;;2.78;100.00;103521.59;5062376;28;20039;-75
2022/01/12 00:15:32;;;;;;;53.65;23.48;;;;;;;2.84;100.00;103526.25;5062285;28;20053;-73
2022/01/12 00:17:57;;;;;;;49.47;23.95;;;;;;;2.79;100.00;103528.66;5062477;28;20089;-74
2022/01/12 00:20:23;;;;;;;41.72;22.15;;;;;;;2.81;100.00;103519.34;5063389;28;20143;-73
2022/01/12 00:22:48;;;;;;;47.58;20.73;;;;;;;2.81;100.00;103518.53;5064528;28;20048;-74
2022/01/12 00:33:14;;;;;;;41.45;20.83;;;;;;;2.70;100.00;103536.81;5064507;28;20080;-74
2022/01/12 00:35:43;;;;;;;43.45;21.25;;;;;;;2.66;100.00;103532.81;5065190;28;20040;-74
2022/01/12 00:38:10;;;;;;;45.53;21.30;;;;;;;2.61;100.00;103529.84;5067481;28;20044;-76
2022/01/12 00:40:44;;;;;;;52.05;24.58;;;;;;;2.61;100.00;103532.53;5066763;28;20064;-74
2022/01/12 00:43:10;;;;;;;51.17;24.02;;;;;;;2.64;100.00;103542.94;5065437;28;20485;-73
2022/01/12 00:45:42;;;;;;;57.97;26.33;;;;;;;2.59;100.00;103541.81;5047622;28;20040;-75
2022/01/12 00:48:08;;;;;;;54.50;24.85;;;;;;;2.52;100.00;103546.28;5066472;28;20066;-74
2022/01/12 00:50:34;;;;;;;53.97;25.95;;;;;;;2.57;100.00;103554.66;5063751;28;20035;-74
2022/01/12 00:52:59;;;;;;;56.40;25.23;;;;;;;2.55;100.00;103557.50;5066339;28;20032;-73
2022/01/12 00:55:25;;;;;;;53.88;25.63;;;;;;;2.52;100.00;103557.06;5066415;28;20052;-74
2022/01/12 00:57:51;;;;;;;60.42;26.38;;;;;;;2.52;100.00;103560.56;5067941;28;20052;-75
2022/01/12 01:00:20;;;;;;;57.70;27.13;;;;;;;2.49;100.00;103558.25;5065813;28;20037;-74
2022/01/12 01:02:46;;;;;;;72.63;27.38;;;;;;;2.54;100.00;103555.84;5069615;28;20040;-75
2022/01/12 01:05:12;;;;;;;54.78;26.33;;;;;;;2.48;100.00;103553.91;5068253;28;20032;-74
2022/01/12 01:07:38;;;;;;;61.38;28.63;;;;;;;2.58;100.00;103551.75;5071655;28;20070;-74
2022/01/12 01:10:06;;;;;;;58.95;27.77;;;;;;;2.57;100.00;103543.88;5072676;28;20100;-74
2022/01/12 01:12:35;;;;;;;64.25;28.20;;;;;;;2.43;100.00;103542.81;5054659;28;20074;-75
2022/01/12 01:15:07;;;;;;;67.05;29.23;;;;;;;2.35;100.00;103540.19;5071662;28;20076;-74
2022/01/12 01:25:45;;;;;;;72.50;30.58;;;;;;;2.45;100.00;103541.63;5035865;28;20134;-74
2022/01/12 01:28:12;;;;;;;64.97;29.67;;;;;;;2.48;100.00;103545.81;5065340;28;20098;-74
2022/01/12 01:30:40;;;;;;;67.25;29.60;;;;;;;2.45;100.00;103552.41;5063195;28;20040;-74
2022/01/12 01:33:09;;;;;;;77.20;33.25;;;;;;;2.49;100.00;103547.47;5061513;28;20071;-75
2022/01/12 01:35:41;;;;;;;77.10;33.00;;;;;;;2.37;100.00;103548.94;5061227;28;20084;-74
2022/01/12 01:38:07;;;;;;;77.63;33.85;;;;;;;2.36;100.00;103558.06;5058006;28;20036;-74
2022/01/12 01:40:35;;;;;;;68.88;33.47;;;;;;;2.44;100.00;103560.66;5058110;28;20044;-74
2022/01/12 01:53:55;;;;;;;96.63;39.13;;;;;;;2.47;100.00;103562.97;5037036;28;20037;-74
2022/01/12 01:56:23;;;;;;;77.93;37.80;;;;;;;2.52;100.00;103557.88;5038517;28;20946;-74
2022/01/12 01:58:49;;;;;;;82.68;37.58;;;;;;;2.44;100.00;103552.56;5057392;28;20037;-73
2022/01/12 02:01:15;;;;;;;87.60;40.25;;;;;;;2.49;100.00;103544.78;5057035;28;20398;-76
2022/01/12 02:03:52;;;;;;;103.22;45.50;;;;;;;2.36;100.00;103548.13;5059798;28;20075;-73
2022/01/12 02:06:17;;;;;;;109.60;47.30;;;;;;;2.46;100.00;103537.06;5061922;28;20421;-73
2022/01/12 02:08:45;;;;;;;97.18;45.83;;;;;;;2.36;100.00;103542.72;5060729;28;20041;-73
2022/01/12 02:11:31;;;;;;;92.25;41.95;;;;;;;2.38;100.00;103547.91;5030243;28;20049;-73
2022/01/12 02:14:05;;;;;;;100.78;41.33;;;;;;;2.39;100.00;103552.31;5060072;28;20102;-73
2022/01/12 02:16:39;;;;;;;91.13;41.53;;;;;;;2.41;100.00;103551.06;5059644;28;20048;-74
2022/01/12 02:40:37;;;;;;;95.22;40.13;;;;;;;2.44;100.00;103571.41;5061790;28;20047;-73
2022/01/12 02:51:35;;;;;;;96.10;41.88;;;;;;;2.39;100.00;103579.22;5041798;28;20045;-75
2022/01/12 02:53:51;;;;;;;103.90;41.13;;;;;;;2.41;100.00;103587.94;5037610;28;20513;-74
2022/01/12 02:56:26;;;;;;;95.30;41.35;;;;;;;2.44;100.00;103592.97;5039793;28;20400;-74
2022/01/12 02:58:52;;;;;;;102.32;44.22;;;;;;;2.48;100.00;103597.00;5039161;28;20041;-75
2022/01/12 03:02:02;;;;;;;113.88;46.13;;;;;;;2.53;100.00;103597.28;5039142;28;20508;-74
2022/01/12 03:04:08;;;;;;;104.68;44.42;;;;;;;2.48;100.00;103610.47;5038900;28;20082;-74
2022/01/12 03:06:37;;;;;;;102.70;44.30;;;;;;;2.41;100.00;103609.50;5039019;28;20040;-74
2022/01/12 03:09:05;;;;;;;107.35;47.58;;;;;;;2.40;100.00;103627.50;5038553;28;20075;-75
2022/01/12 03:11:34;;;;;;;99.65;44.13;;;;;;;2.39;100.00;103622.31;5039174;28;20033;-74
2022/01/12 03:14:10;;;;;;;110.65;45.67;;;;;;;2.48;100.00;103630.16;5039907;28;20259;-74
2022/01/12 03:16:36;;;;;;;114.03;46.47;;;;;;;2.44;100.00;103634.22;5045294;28;20174;-73
2022/01/12 03:19:06;;;;;;;114.28;48.58;;;;;;;2.47;100.00;103641.09;5058378;28;20044;-74
2022/01/12 03:21:33;;;;;;;113.97;47.05;;;;;;;2.51;100.00;103642.41;5058208;28;20041;-74
2022/01/12 03:23:59;;;;;;;119.70;48.00;;;;;;;2.48;100.00;103648.16;5058899;28;20123;-74
2022/01/12 03:26:28;;;;;;;122.22;50.05;;;;;;;2.54;100.00;103642.06;5041848;28;20041;-74
2022/01/12 03:28:55;;;;;;;117.00;47.60;;;;;;;2.54;100.00;103641.22;5058808;28;20044;-73
2022/01/12 03:31:28;;;;;;;127.53;49.35;;;;;;;2.53;100.00;103647.59;5059597;28;20142;-74
2022/01/12 03:33:59;;;;;;;112.45;47.78;;;;;;;2.68;100.00;103643.13;5059402;28;20405;-72
2022/01/12 03:39:04;;;;;;;119.90;48.97;;;;;;;2.59;100.00;103641.50;5059563;28;20852;-73
2022/01/12 03:41:34;;;;;;;135.32;48.67;;;;;;;2.64;100.00;103639.94;5058465;28;20048;-73
2022/01/12 03:44:02;;;;;;;126.80;49.97;;;;;;;2.56;100.00;103625.69;5043091;28;20051;-74
2022/01/12 03:46:30;;;;;;;116.20;47.63;;;;;;;2.49;100.00;103628.28;5059673;28;20059;-74
2022/01/12 03:48:55;;;;;;;128.07;50.58;;;;;;;2.66;100.00;103634.38;5060937;28;20044;-72
2022/01/12 03:51:22;;;;;;;114.15;49.28;;;;;;;2.71;100.00;103630.13;5060855;28;20476;-74
2022/01/12 03:53:48;;;;;;;122.72;50.42;;;;;;;2.61;100.00;103632.22;5058737;28;20037;-73
2022/01/12 03:56:13;;;;;;;150.32;53.55;;;;;;;2.59;100.00;103631.56;5042455;28;20178;-74
2022/01/12 03:58:40;;;;;;;140.38;51.33;;;;;;;2.62;100.00;103639.28;5042563;28;20093;-73
2022/01/12 04:01:05;;;;;;;117.43;49.97;;;;;;;2.66;100.00;103639.75;5061274;28;20037;-74
2022/01/12 04:03:37;;;;;;;123.40;50.97;;;;;;;2.62;100.00;103633.91;5058439;28;20375;-73
2022/01/12 04:08:47;;;;;;;119.72;48.42;;;;;;;2.60;100.00;103624.31;5058476;28;20044;-73
2022/01/12 04:11:12;;;;;;;121.03;49.38;;;;;;;2.70;100.00;103633.81;5058372;28;20048;-74
2022/01/12 04:13:38;;;;;;;141.55;50.30;;;;;;;2.55;100.00;103630.25;5059102;28;20048;-73
2022/01/12 04:16:06;;;;;;;111.85;47.17;;;;;;;2.60;100.00;103625.16;5058184;28;20086;-75
2022/01/12 04:18:33;;;;;;;119.78;50.22;;;;;;;2.63;100.00;103643.66;5060429;28;20050;-75
2022/01/12 04:21:03;;;;;;;135.80;52.30;;;;;;;2.70;100.00;103644.59;5057173;28;20315;-72
2022/01/12 04:23:29;;;;;;;122.70;49.05;;;;;;;2.68;100.00;103643.13;5058778;28;20048;-73
2022/01/12 04:25:57;;;;;;;127.60;50.78;;;;;;;2.67;100.00;103642.25;5060307;28;20509;-74
2022/01/12 04:28:24;;;;;;;131.70;50.75;;;;;;;2.66;100.00;103629.81;5058053;28;20119;-74
2022/01/12 04:30:51;;;;;;;128.43;50.45;;;;;;;2.57;100.00;103619.31;5058543;28;20151;-73
2022/01/12 04:33:18;;;;;;;137.07;52.13;;;;;;;2.77;100.00;103625.03;5042359;28;20358;-72
2022/01/12 04:35:48;;;;;;;131.23;52.35;;;;;;;2.80;100.00;103619.25;5042054;28;20040;-73
2022/01/12 04:38:15;;;;;;;137.35;51.78;;;;;;;2.86;100.00;103623.91;5058557;28;20131;-73
2022/01/12 04:40:41;;;;;;;121.95;47.85;;;;;;;2.74;100.00;103620.00;5053301;28;20521;-73
2022/01/12 04:43:10;;;;;;;146.73;54.60;;;;;;;2.82;100.00;103627.97;5041070;28;20549;-73
2022/01/12 04:45:56;;;;;;;165.68;54.55;;;;;;;2.85;100.00;103638.41;5038712;28;20495;-72
2022/01/12 04:50:52;;;;;;;160.80;56.10;;;;;;;2.75;100.00;103637.84;5038159;28;20536;-73
2022/01/12 04:53:19;;;;;;;165.65;57.17;;;;;;;2.80;100.00;103630.03;5039397;28;20147;-73
2022/01/12 04:55:46;;;;;;;141.00;53.20;;;;;;;2.79;100.00;103628.34;5038044;28;20041;-71
2022/01/12 04:58:14;;;;;;;146.05;55.53;;;;;;;2.80;100.00;103635.44;5037419;28;20041;-73
2022/01/12 05:00:41;;;;;;;148.50;55.40;;;;;;;2.83;100.00;103629.69;5037459;28;20135;-74
2022/01/12 05:13:50;;;;;;;165.10;57.65;;;;;;;2.81;100.00;103626.31;5058692;28;20037;-72
2022/01/12 05:16:17;;;;;;;158.73;56.40;;;;;;;2.86;100.00;103634.69;5057551;28;20578;-73
2022/01/12 05:18:44;;;;;;;162.02;57.83;;;;;;;2.83;100.00;103640.47;5056676;28;20048;-73
2022/01/12 05:21:10;;;;;;;155.95;55.95;;;;;;;2.88;100.00;103632.63;5059337;28;20540;-74
2022/01/12 05:23:37;;;;;;;180.73;57.63;;;;;;;2.79;100.00;103639.13;5057128;28;20105;-73
2022/01/12 05:26:02;;;;;;;161.77;56.97;;;;;;;2.88;100.00;103638.03;5057109;28;20056;-72
2022/01/12 05:28:28;;;;;;;182.15;58.97;;;;;;;2.94;100.00;103646.25;5038015;28;20043;-72
2022/01/12 05:30:55;;;;;;;166.00;57.65;;;;;;;2.85;100.00;103643.78;5044410;28;20124;-74
2022/01/12 05:33:24;;;;;;;153.40;56.13;;;;;;;2.94;100.00;103648.09;5045023;28;20047;-72
2022/01/12 05:35:57;;;;;;;175.70;59.10;;;;;;;3.04;100.00;103639.75;5045991;28;20132;-73
2022/01/12 05:38:24;;;;;;;178.35;59.83;;;;;;;2.92;100.00;103644.75;5047652;28;20114;-72
2022/01/12 05:40:55;;;;;;;166.85;58.05;;;;;;;2.93;100.00;103646.41;5041110;28;20036;-73
2022/01/12 05:43:28;;;;;;;178.18;60.40;;;;;;;2.85;100.00;103643.78;5024465;28;20049;-74
2022/01/12 05:45:56;;;;;;;194.25;61.97;;;;;;;2.86;100.00;103645.47;5024390;28;20523;-74
2022/01/12 05:50:49;;;;;;;196.25;61.78;;;;;;;2.91;100.00;103641.22;5059501;28;20068;-76
2022/01/12 05:53:18;;;;;;;223.90;65.22;;;;;;;2.87;100.00;103630.97;5060947;28;20072;-73
2022/01/12 05:55:48;;;;;;;201.88;62.45;;;;;;;2.90;100.00;103630.59;5054822;28;20115;-73
2022/01/12 05:58:13;;;;;;;216.02;63.53;;;;;;;2.82;100.00;103630.69;5043578;28;20388;-74
2022/01/12 06:00:40;;;;;;;218.20;65.95;;;;;;;2.94;100.00;103637.31;5054358;28;20444;-74
2022/01/12 06:03:06;;;;;;;210.63;64.00;;;;;;;2.94;100.00;103648.09;5050998;28;20535;-73
2022/01/12 06:05:32;;;;;;;207.38;63.33;;;;;;;3.08;100.00;103655.34;5054933;28;20036;-72
2022/01/12 06:07:58;;;;;;;179.35;60.88;;;;;;;3.05;100.00;103660.28;5043143;28;20044;-75
2022/01/12 06:10:24;;;;;;;186.77;62.55;;;;;;;3.13;100.00;103665.59;5042626;28;20068;-74
2022/01/12 06:12:51;;;;;;;200.15;63.65;;;;;;;3.08;100.00;103671.53;5043796;28;20046;-72
2022/01/12 06:15:17;;;;;;;194.10;61.63;;;;;;;3.08;100.00;103671.53;5049065;28;20443;-76
2022/01/12 06:17:43;;;;;;;198.07;62.17;;;;;;;3.13;100.00;103685.28;5042892;28;20029;-74
2022/01/12 06:20:09;;;;;;;192.93;61.45;;;;;;;3.16;100.00;103695.72;5040343;28;20375;-73
2022/01/12 06:22:49;;;;;;;193.23;63.05;;;;;;;3.17;100.00;103696.53;5048019;28;20036;-72
2022/01/12 06:25:15;;;;;;;189.23;61.38;;;;;;;3.07;100.00;103696.81;5058055;28;20102;-73
2022/01/12 06:27:50;;;;;;;208.13;63.33;;;;;;;3.06;100.00;103700.53;5060310;28;20439;-74
2022/01/12 06:32:54;;;;;;;242.10;68.10;;;;;;;3.05;100.00;103716.88;5040992;28;20822;-74
2022/01/12 06:35:20;;;;;;;242.77;67.88;;;;;;;2.98;100.00;103719.47;5039098;28;20140;-73
2022/01/12 06:37:45;;;;;;;256.73;68.55;;;;;;;2.97;100.00;103720.50;5038426;28;20339;-74
2022/01/12 06:40:12;;;;;;;226.00;64.90;;;;;;;2.93;100.00;103711.09;5037357;28;20478;-73
2022/01/12 06:42:38;;;;;;;236.65;71.03;;;;;;;3.00;100.00;103717.44;5039390;28;20048;-74
2022/01/12 06:45:04;;;;;;;301.02;74.43;;;;;;;2.95;100.00;103714.47;5037467;28;20037;-73
2022/01/12 06:47:30;;;;;;;264.58;71.95;;;;;;;3.04;100.00;103718.75;5038121;28;20484;-73
2022/01/12 06:49:55;;;;;;;254.82;69.38;;;;;;;3.07;100.00;103731.88;5059838;28;20471;-75
2022/01/12 06:52:21;;;;;;;419.25;82.90;;;;;;;3.05;100.00;103731.19;5059010;28;20032;-75
2022/01/12 06:54:47;;;;;;;311.88;77.25;;;;;;;3.11;100.00;103725.09;5058579;28;20060;-74
2022/01/12 06:57:13;;;;;;;263.17;72.20;;;;;;;3.12;100.00;103731.34;5030833;28;20071;-74
2022/01/12 06:59:38;;;;;;;335.92;77.28;;;;;;;3.14;100.00;103730.13;5058731;28;20036;-74
2022/01/12 07:02:04;;;;;;;358.42;80.07;;;;;;;3.07;100.00;103739.97;5042670;28;20051;-75
2022/01/12 07:04:35;;;;;;;413.48;82.47;;;;;;;3.03;100.00;103738.66;5058683;28;20041;-74
2022/01/12 07:07:01;;;;;;;326.75;79.85;;;;;;;3.16;100.00;103732.63;5058565;28;20191;-73
2022/01/12 07:09:26;;;;;;;384.95;86.43;;;;;;;3.14;100.00;103737.34;5058462;28;20219;-75
2022/01/12 07:11:58;;;;;;;442.70;89.80;;;;;;;3.04;100.00;103744.88;5059596;28;20134;-75
2022/01/12 07:14:28;;;;;;;353.30;78.15;;;;;;;3.08;100.00;103755.09;5043130;28;20036;-74
2022/01/12 07:16:54;;;;;;;285.25;71.85;;;;;;;3.20;100.00;103743.88;5057439;28;20064;-74
2022/01/12 07:19:21;;;;;;;413.80;82.88;;;;;;;3.19;100.00;103753.84;5058188;28;20408;-75
2022/01/12 07:21:48;;;;;;;563.05;102.38;;;;;;;3.20;100.00;103754.66;5058425;28;20086;-77
2022/01/12 07:24:13;;;;;;;524.03;98.93;;;;;;;3.15;100.00;103761.47;5060566;28;20476;-74
2022/01/12 07:26:39;;;;;;;486.70;91.35;;;;;;;3.21;100.00;103759.06;5042822;28;20040;-75
2022/01/12 07:29:04;;;;;;;462.05;93.05;;;;;;;3.22;100.00;103766.13;5061081;28;20075;-73
2022/01/12 07:31:32;;;;;;;331.83;81.15;;;;;;;3.15;100.00;103764.16;5064129;28;20534;-74
2022/01/12 07:33:57;;;;;;;450.98;88.13;;;;;;;3.30;100.00;103766.06;5065811;28;20070;-73
2022/01/12 07:36:23;;;;;;;349.17;82.22;;;;;;;3.31;100.00;103775.81;5068943;28;20044;-75
2022/01/12 07:38:50;;;;;;;533.47;102.50;;;;;;;3.27;100.00;103777.22;5072504;28;20086;-75
2022/01/12 07:41:16;;;;;;;481.05;93.60;;;;;;;3.27;100.00;103774.50;5070140;28;20033;-75
2022/01/12 07:43:41;;;;;;;486.45;92.68;;;;;;;3.38;100.00;103784.88;5069591;28;20374;-73
2022/01/12 07:46:07;;;;;;;419.58;86.28;;;;;;;3.29;100.00;103783.25;5071469;28;20496;-75
2022/01/12 07:48:32;;;;;;;292.23;64.93;;;;;;;3.27;100.00;103782.59;5072397;28;20044;-75
2022/01/12 07:50:58;;;;;;;372.98;79.10;;;;;;;3.30;100.00;103790.31;5070584;28;20048;-74
2022/01/12 07:53:23;;;;;;;322.17;74.03;;;;;;;3.29;100.00;103788.66;5065739;28;20335;-75
2022/01/12 07:55:49;;;;;;;212.70;54.28;;;;;;;3.14;100.00;103797.53;5064563;28;20200;-75
2022/01/12 07:58:14;;;;;;;195.07;47.55;;;;;;;2.96;100.00;103807.78;5063461;28;20040;-76
2022/01/12 08:00:40;;;;;;;187.57;51.10;;;;;;;3.02;100.00;103807.06;5063532;28;20093;-74
2022/01/12 08:03:05;;;;;;;191.27;46.75;;;;;;;3.24;100.00;103816.16;5062732;28;20032;-73
2022/01/12 08:05:31;;;;;;;206.43;50.10;;;;;;;3.29;100.00;103819.16;5061820;28;20044;-75
2022/01/12 08:07:56;;;;;;;182.18;45.08;;;;;;;3.45;100.00;103812.75;5064005;28;20492;-74
2022/01/12 08:10:22;;;;;;;165.85;42.53;;;;;;;3.36;100.00;103813.88;5066441;28;20146;-75
2022/01/12 08:12:47;;;;;;;182.15;44.58;;;;;;;3.29;100.00;103821.84;5049989;28;20199;-75
2022/01/12 08:15:14;;;;;;;173.82;44.88;;;;;;;3.47;100.00;103821.53;5069286;28;20048;-74
2022/01/12 08:17:40;;;;;;;178.45;42.83;;;;;;;3.24;100.00;103826.13;5070431;28;20530;-76
2022/01/12 08:20:11;;;;;;;186.45;42.60;;;;;;;3.29;100.00;103815.63;5070132;28;20087;-74
2022/01/12 08:22:36;;;;;;;193.15;42.83;;;;;;;3.57;100.00;103827.47;5069654;28;20043;-73
2022/01/12 08:25:02;;;;;;;178.13;41.55;;;;;;;3.38;100.00;103836.13;5068878;28;20260;-74
2022/01/12 08:27:28;;;;;;;175.90;42.55;;;;;;;3.45;100.00;103837.03;5071168;28;20472;-74
2022/01/12 08:29:59;;;;;;;162.63;42.55;;;;;;;3.48;100.00;103844.78;5070941;28;20036;-74
2022/01/12 08:32:25;;;;;;;160.77;42.83;;;;;;;3.43;100.00;103857.97;5070800;28;20094;-73
2022/01/12 08:34:50;;;;;;;158.98;40.33;;;;;;;3.35;100.00;103856.19;5070437;28;20056;-73
2022/01/12 08:37:16;;;;;;;162.82;42.47;;;;;;;3.43;100.00;103857.97;5065926;28;20044;-74
2022/01/12 08:39:41;;;;;;;158.10;40.92;;;;;;;3.47;100.00;103847.66;5066597;28;20078;-73
2022/01/12 08:42:07;;;;;;;159.60;42.67;;;;;;;3.35;100.00;103849.97;5065960;28;20537;-74
2022/01/12 08:44:33;;;;;;;152.13;42.78;;;;;;;3.36;100.00;103851.63;5060206;28;20044;-75
2022/01/12 08:46:59;;;;;;;165.45;42.95;;;;;;;3.52;100.00;103843.41;5059404;28;20050;-74
2022/01/12 08:49:24;;;;;;;150.63;43.13;;;;;;;3.45;100.00;103847.84;5057007;28;20048;-74
2022/01/12 08:51:50;;;;;;;139.40;43.83;;;;;;;3.52;100.00;103845.25;5057280;28;20067;-74
2022/01/12 08:54:15;;;;;;;151.13;42.60;;;;;;;3.65;100.00;103834.69;5056658;28;20120;-74
2022/01/12 08:56:40;;;;;;;154.88;43.55;;;;;;;3.83;100.00;103842.41;5058086;28;20102;-74
2022/01/12 08:59:06;;;;;;;158.60;43.20;;;;;;;3.92;100.00;103846.69;5056565;28;20151;-74
2022/01/12 09:01:31;;;;;;;142.40;40.45;;;;;;;3.86;100.00;103847.44;5055779;28;20051;-74
2022/01/12 09:03:57;;;;;;;143.23;40.30;;;;;;;3.82;100.00;103865.03;5057572;28;20052;-75
2022/01/12 09:06:22;;;;;;;127.95;40.95;;;;;;;3.89;100.00;103867.84;5056652;28;20040;-73
2022/01/12 09:08:49;;;;;;;122.45;37.38;;;;;;;3.55;100.00;103883.50;5057683;28;20048;-74
2022/01/12 09:11:15;;;;;;;133.82;39.00;;;;;;;3.53;100.00;103879.31;5057279;28;20363;-76
2022/01/12 09:13:41;;;;;;;123.47;38.00;;;;;;;3.72;100.00;103891.44;5058008;28;20072;-74
2022/01/12 09:16:06;;;;;;;119.30;38.35;;;;;;;3.84;100.00;103892.72;5058137;28;20428;-75
2022/01/12 09:18:37;;;;;;;118.45;38.58;;;;;;;4.04;100.00;103893.84;5055239;28;20039;-75
2022/01/12 09:21:03;;;;;;;115.35;38.03;;;;;;;4.27;100.00;103898.31;5057698;28;20072;-75
2022/01/12 09:23:29;;;;;;;134.00;39.75;;;;;;;4.26;100.00;103902.88;5039547;28;20534;-72
2022/01/12 09:25:55;;;;;;;120.65;38.80;;;;;;;4.04;100.00;103912.75;5055441;28;20044;-76
2022/01/12 09:28:20;;;;;;;103.18;35.40;;;;;;;4.26;100.00;103918.25;5056991;28;20382;-75
2022/01/12 09:30:46;;;;;;;106.10;36.13;;;;;;;4.29;100.00;103925.97;5055510;28;20044;-75
2022/01/12 09:33:11;;;;;;;108.88;37.08;;;;;;;4.23;100.00;103926.72;5055196;28;20477;-74
2022/01/12 09:35:37;;;;;;;110.28;35.88;;;;;;;4.22;100.00;103930.47;5045241;28;20536;-73
2022/01/12 09:38:02;;;;;;;99.63;33.58;;;;;;;4.30;100.00;103924.94;5044536;28;20096;-74
2022/01/12 09:40:28;;;;;;;104.15;33.60;;;;;;;4.13;100.00;103931.56;5042668;28;20691;-76
2022/01/12 09:42:54;;;;;;;100.93;34.58;;;;;;;4.15;100.00;103943.84;5040355;28;20492;-75
2022/01/12 09:45:20;;;;;;;98.68;34.17;;;;;;;4.04;100.00;103952.41;5039449;28;20769;-73
2022/01/12 09:47:47;;;;;;;100.55;33.45;;;;;;;4.00;100.00;103956.50;5040620;28;20049;-73
2022/01/12 09:50:14;;;;;;;99.28;33.78;;;;;;;4.19;100.00;103949.72;5038876;28;20065;-74
2022/01/12 09:52:40;;;;;;;87.40;32.28;;;;;;;4.43;100.00;103941.38;5040577;28;20033;-75
2022/01/12 09:55:06;;;;;;;88.97;32.40;;;;;;;4.27;100.00;103936.13;5040280;28;20048;-77
2022/01/12 09:57:31;;;;;;;82.40;31.17;;;;;;;4.18;100.00;103938.06;5037492;28;20425;-76
2022/01/12 09:59:57;;;;;;;84.53;30.63;;;;;;;4.48;100.00;103936.25;5038596;28;20052;-75
2022/01/12 10:02:22;;;;;;;79.35;29.95;;;;;;;4.31;100.00;103941.00;5037409;28;20041;-73
2022/01/12 10:05:08;;;;;;;86.88;30.63;;;;;;;3.97;100.00;103935.25;5040831;28;20382;-75
2022/01/12 10:07:34;;;;;;;85.45;29.70;;;;;;;3.99;100.00;103934.06;5039194;28;20612;-75
2022/01/12 10:10:07;;;;;;;82.03;29.50;;;;;;;4.03;100.00;103935.34;5045544;28;20441;-74
2022/01/12 10:12:34;;;;;;;74.82;29.17;;;;;;;4.03;100.00;103935.34;5039786;28;20364;-75
2022/01/12 10:15:06;;;;;;;86.95;30.90;;;;;;;4.40;100.00;103946.31;5037709;28;20048;-74
2022/01/12 10:17:39;;;;;;;;;;;;;;;4.11;100.00;103952.53;5041470;28;20041;-74
2022/01/12 10:20:14;;;;;;;80.35;30.65;;;;;;;3.97;100.00;103957.69;5041295;28;20360;-75
2022/01/12 10:22:56;;;;;;;75.25;31.08;;;;;;;4.02;100.00;103965.25;5046306;28;20519;-75
2022/01/12 10:25:22;;;;;;;78.40;28.30;;;;;;;4.00;100.00;103959.19;5043658;28;20578;-75
2022/01/12 10:27:49;;;;;;;76.53;29.38;;;;;;;3.98;100.00;103964.75;5043654;28;20037;-74
2022/01/12 10:30:22;;;;;;;83.93;30.13;;;;;;;4.19;100.00;103960.53;5038498;28;20100;-74
2022/01/12 10:33:09;;;;;;;68.50;28.55;;;;;;;4.41;100.00;103954.22;5039494;28;20508;-74
2022/01/12 10:35:37;;;;;;;79.15;28.92;;;;;;;4.59;100.00;103955.72;5040661;28;20037;-73
2022/01/12 10:38:17;;;;;;;64.53;26.92;;;;;;;4.73;100.00;103962.97;5041259;28;20418;-74
2022/01/12 10:40:48;;;;;;;77.07;28.92;;;;;;;4.77;100.00;103956.19;5039727;28;20037;-75
2022/01/12 10:43:32;;;;;;;67.05;27.40;;;;;;;4.76;100.00;103958.03;5042488;28;20040;-74
2022/01/12 10:45:59;;;;;;;65.90;25.33;;;;;;;4.92;100.00;103953.47;5045797;28;20071;-74
2022/01/12 10:48:37;;;;;;;67.10;26.23;;;;;;;5.07;100.00;103946.13;5049672;28;20036;-74
2022/01/12 10:51:02;;;;;;;65.57;26.05;;;;;;;5.24;100.00;103943.22;5044419;28;20516;-75
2022/01/12 10:53:33;;;;;;;64.90;25.73;;;;;;;4.88;100.00;103950.25;5044764;28;20122;-75
2022/01/12 10:56:11;;;;;;;72.10;25.77;;;;;;;4.87;100.00;103959.41;5043699;28;20048;-75
2022/01/12 10:58:40;;;;;;;60.33;25.02;;;;;;;4.96;100.00;103958.28;5043729;28;20504;-74
2022/01/12 11:01:06;;;;;;;64.60;25.88;;;;;;;5.12;100.00;103964.47;5053504;28;20036;-75
2022/01/12 11:03:31;;;;;;;76.90;26.88;;;;;;;5.06;100.00;103962.53;5062602;28;20487;-75
2022/01/12 11:05:58;;;;;;;72.03;26.83;;;;;;;5.08;100.00;103968.63;5047363;28;20033;-74
2022/01/12 11:08:25;;;;;;;75.75;27.05;;;;;;;5.04;100.00;103970.88;5040247;28;20044;-75
2022/01/12 11:10:53;;;;;;;78.85;29.92;;;;;;;4.72;100.00;103983.78;5040560;28;20128;-74
2022/01/12 11:13:18;;;;;;;67.28;26.55;;;;;;;5.09;100.00;103968.44;5043014;28;20028;-74
2022/01/12 11:15:44;;;;;;;64.53;26.02;;;;;;;4.84;100.00;103973.31;5050357;28;20462;-75
2022/01/12 11:18:10;;;;;;;68.03;24.02;;;;;;;4.82;100.00;103978.06;5058828;28;20397;-73
2022/01/12 11:20:40;;;;;;;67.75;25.98;;;;;;;4.74;100.00;103975.44;5053364;28;20037;-76
2022/01/12 11:23:12;;;;;;;56.30;23.05;;;;;;;4.83;100.00;103963.53;5041161;28;20873;-76
2022/01/12 11:25:46;;;;;;;65.07;24.52;;;;;;;4.63;100.00;103957.03;5045913;28;20047;-75
2022/01/12 11:28:26;;;;;;;57.35;24.80;;;;;;;4.53;100.00;103955.41;5048524;28;20037;-77
2022/01/12 11:30:51;;;;;;;64.60;25.35;;;;;;;4.61;100.00;103951.78;5045916;28;20095;-74
2022/01/12 11:33:19;;;;;;;64.75;27.20;;;;;;;4.88;100.00;103938.63;5047623;28;20035;-74
2022/01/12 11:35:50;;;;;;;65.35;25.33;;;;;;;4.93;100.00;103942.44;5044730;28;20072;-75
2022/01/12 11:38:21;;;;;;;64.28;24.75;;;;;;;5.28;100.00;103934.50;5044621;28;20120;-74
2022/01/12 11:40:47;;;;;;;63.03;25.02;;;;;;;5.34;100.00;103936.44;5026443;28;20045;-75
2022/01/12 11:43:23;;;;;;;58.95;23.98;;;;;;;5.03;100.00;103944.00;5043177;28;20071;-74
2022/01/12 11:46:06;;;;;;;61.08;24.80;;;;;;;5.18;100.00;103940.25;5043618;28;20070;-76
2022/01/12 11:48:42;;;;;;;59.55;26.60;;;;;;;5.40;100.00;103927.53;5044490;28;20044;-74
2022/01/12 11:51:07;;;;;;;61.65;24.75;;;;;;;5.04;100.00;103934.88;5043676;28;20118;-76
2022/01/12 11:53:55;;;;;;;74.10;27.10;;;;;;;5.18;100.00;103934.00;5048868;28;20532;-74
2022/01/12 11:56:26;;;;;;;67.72;25.98;;;;;;;5.44;100.00;103934.25;5046083;28;20090;-74
2022/01/12 11:58:56;;;;;;;68.03;26.92;;;;;;;5.42;100.00;103935.47;5050004;28;20051;-74
2022/01/12 12:01:24;;;;;;;66.03;26.65;;;;;;;5.38;100.00;103934.19;5044255;28;20079;-74
2022/01/12 12:04:01;;;;;;;71.32;26.60;;;;;;;5.68;100.00;103938.44;5046663;28;20037;-76
2022/01/12 12:06:28;;;;;;;64.80;25.90;;;;;;;5.70;100.00;103950.94;5042088;28;20128;-74
2022/01/12 12:08:56;;;;;;;57.10;24.63;;;;;;;5.82;100.00;103952.09;5038177;28;20051;-74
2022/01/12 12:11:25;;;;;;;63.40;27.45;;;;;;;5.74;100.00;103947.66;5047344;28;20062;-75
2022/01/12 12:13:50;;;;;;;58.95;24.88;;;;;;;5.56;100.00;103950.00;5039702;28;20278;-75
2022/01/12 12:16:16;;;;;;;62.88;25.52;;;;;;;5.55;100.00;103961.84;5042928;28;20394;-74
2022/01/12 12:18:42;;;;;;;60.53;23.38;;;;;;;5.42;100.00;103960.69;5043637;28;20528;-75
2022/01/12 12:21:08;;;;;;;59.05;23.92;;;;;;;5.52;100.00;103962.22;5038511;28;20147;-74
2022/01/12 12:23:33;;;;;;;64.63;25.70;;;;;;;5.65;100.00;103951.53;5043708;28;20037;-74
2022/01/12 12:26:08;;;;;;;60.10;25.35;;;;;;;5.77;100.00;103943.72;5043753;28;20036;-73
2022/01/12 12:28:33;;;;;;;63.72;24.80;;;;;;;5.69;100.00;103936.56;5046904;28;20040;-74